createdAt,value
2023-04-03T00:09:14.712Z,9.63
2023-04-03T00:19:19.071Z,11.30
2023-04-03T00:29:22.285Z,14.07
2023-04-03T00:39:27.182Z,10.98
2023-04-03T00:49:30.499Z,11.65
2023-04-03T00:59:37.775Z,11.70
2023-04-03T01:09:42.193Z,10.70
2023-04-03T01:19:58.878Z,9.93
2023-04-03T01:30:02.047Z,12.63
2023-04-03T01:40:09.177Z,11.63
2023-04-03T01:50:12.300Z,14.98
2023-04-03T02:00:17.663Z,13.57
2023-04-03T02:10:21.424Z,11.82
2023-04-03T02:20:25.842Z,12.35
2023-04-03T02:30:29.231Z,11.43
2023-04-03T02:40:33.602Z,11.63
2023-04-03T02:50:36.840Z,12.13
2023-04-03T03:00:41.939Z,11.40
2023-04-03T03:10:46.437Z,11.65
2023-04-03T03:20:53.177Z,11.43
2023-04-03T03:30:56.755Z,11.18
2023-04-03T03:41:02.267Z,9.40
2023-04-03T03:51:07.479Z,7.72
2023-04-03T04:01:15.104Z,8.52
2023-04-03T04:11:23.036Z,8.80
2023-04-03T04:21:28.804Z,6.90
2023-04-03T04:31:31.919Z,5.90
2023-04-03T04:41:36.900Z,6.25
2023-04-03T04:51:51.612Z,5.47
2023-04-03T05:02:00.506Z,4.85
2023-04-03T05:12:05.073Z,5.50
2023-04-03T05:22:16.136Z,3.70
2023-04-03T05:42:27.083Z,4.63
2023-04-03T06:02:36.772Z,2.60
2023-04-03T06:12:40.298Z,3.53
2023-04-03T06:22:45.414Z,3.45
2023-04-03T06:32:48.503Z,3.63
2023-04-03T06:42:52.907Z,3.75
2023-04-03T06:52:56.773Z,3.33
2023-04-03T07:03:01.665Z,3.55
2023-04-03T07:13:04.717Z,3.20
2023-04-03T07:23:09.076Z,3.63
2023-04-03T07:33:12.730Z,3.07
2023-04-03T07:43:17.405Z,3.17
2023-04-03T07:53:21.051Z,3.15
2023-04-03T08:03:25.665Z,3.15
2023-04-03T08:13:29.001Z,3.40
2023-04-03T08:23:33.324Z,2.65
2023-04-03T08:33:38.137Z,2.50
2023-04-03T08:43:55.464Z,1.98
2023-04-03T08:54:03.231Z,2.30
2023-04-03T09:04:14.075Z,1.80
2023-04-03T09:14:26.109Z,1.67
2023-04-03T09:24:33.671Z,1.40
2023-04-03T09:34:38.962Z,1.35
2023-04-03T09:44:43.759Z,1.20
2023-04-03T09:54:46.868Z,1.05
2023-04-03T10:05:02.555Z,1.00
2023-04-03T10:15:14.824Z,1.10
2023-04-03T10:25:28.003Z,1.30
2023-04-03T10:35:41.527Z,1.05
2023-04-03T10:45:58.227Z,1.20
2023-04-03T10:56:09.609Z,1.23
2023-04-03T11:06:18.570Z,1.20
2023-04-03T11:16:26.404Z,0.95
2023-04-03T11:26:38.550Z,1.30
2023-04-03T11:36:46.807Z,1.35
2023-04-03T11:57:47.265Z,0.90
2023-04-03T12:08:18.377Z,0.65
2023-04-03T12:18:59.477Z,0.80
2023-04-03T12:29:15.748Z,1.20
2023-04-03T12:39:38.591Z,1.20
2023-04-03T12:49:46.188Z,1.52
2023-04-03T12:59:50.134Z,1.40
2023-04-03T13:10:02.470Z,1.40
2023-04-03T13:20:14.500Z,1.20
2023-04-03T13:30:25.635Z,2.15
2023-04-03T13:40:32.495Z,1.80
2023-04-03T13:51:07.393Z,1.88
2023-04-03T14:01:22.242Z,1.45
2023-04-03T14:11:30.630Z,1.67
2023-04-03T14:21:33.687Z,1.73
2023-04-03T14:31:45.737Z,2.00
2023-04-03T14:41:52.276Z,2.33
2023-04-03T14:52:02.548Z,2.45
2023-04-03T15:02:24.907Z,1.90
2023-04-03T15:12:29.938Z,2.22
2023-04-03T15:22:33.424Z,2.10
2023-04-03T15:32:38.244Z,2.03
2023-04-03T15:42:41.985Z,1.70
2023-04-03T15:52:49.249Z,1.75
2023-04-03T16:03:00.513Z,2.08
2023-04-03T16:13:05.971Z,1.40
2023-04-03T16:23:13.381Z,2.30
2023-04-03T16:33:23.948Z,2.90
2023-04-03T16:43:28.489Z,2.80
2023-04-03T16:53:39.094Z,2.00
2023-04-03T17:03:45.652Z,2.40
2023-04-03T17:13:56.315Z,1.80
2023-04-03T17:24:06.537Z,2.10
2023-04-03T17:34:12.142Z,2.67
2023-04-03T17:44:18.576Z,2.65
2023-04-03T17:54:26.425Z,2.72
2023-04-03T18:04:32.696Z,2.90
2023-04-03T18:14:43.577Z,2.83
2023-04-03T18:24:46.733Z,2.80
2023-04-03T18:34:51.391Z,2.72
2023-04-03T18:44:57.971Z,3.05
2023-04-03T18:55:02.352Z,3.47
2023-04-03T19:05:06.660Z,5.63
2023-04-03T19:15:11.939Z,7.60
2023-04-03T19:25:15.113Z,3.35
2023-04-03T19:35:20.075Z,2.85
2023-04-03T19:55:31.128Z,3.00
2023-04-03T20:05:34.661Z,3.67
2023-04-03T20:15:41.305Z,5.97
2023-04-03T20:25:57.493Z,4.35
2023-04-03T20:36:06.539Z,4.20
2023-04-03T20:46:10.865Z,4.40
2023-04-03T20:56:18.061Z,3.30
2023-04-03T21:06:58.359Z,3.60
2023-04-03T21:17:01.851Z,3.30
2023-04-03T21:27:06.273Z,3.55
2023-04-03T21:37:11.873Z,3.17
2023-04-03T21:47:16.357Z,2.95
2023-04-03T21:57:21.063Z,2.07
2023-04-03T22:07:26.496Z,4.00
2023-04-03T22:17:31.619Z,3.20
2023-04-03T22:27:36.312Z,3.78
2023-04-03T22:37:39.355Z,3.50
2023-04-03T22:47:44.194Z,3.17
2023-04-03T23:07:51.490Z,4.22
2023-04-03T23:17:54.626Z,3.80
2023-04-03T23:27:59.021Z,3.50
2023-04-03T23:38:01.997Z,4.70
2023-04-03T23:48:06.977Z,4.60
2023-04-03T23:58:10.722Z,4.05
